Capt. Reggie Leboeuf — WDC2585 — position and weather

sailwx.info

Track history (hours):
 
Tides and Currents Weather Stations Pressure Air Temp Water Temp Dewpoint Dewpoint Depression Visibility Wind Speed Wind Dir Waves Ship Positions

Capt. Reggie Leboeuf

Owner: Kirby Inland Marine LP, Houston, TX. More information available from US FCC via Universal Licensing System and Coast Guard Vessel Documentation Center.

Last reported at 2018-Jun-14 23:12 UTC. Time now 2018-Jun-21 21:59 UTC.
Position N 29°51' W 091°56'.

Length 26 m; draft 3.5 m.

Type: . MMSI: 366995280.

Date/timePositionNaut miles runAvg speedWind from/ knotsBaromVisibWave heightAir tempDewpointWater temp
2018-Jun-14 23:12N 29°51' W 091°56'1 4.6
2018-Jun-14 23:00N 29°51' W 091°57'2 4.6
2018-Jun-14 22:30N 29°50' W 091°59'2 4.9
2018-Jun-14 22:00N 29°49' W 092°02'2 4.5
2018-Jun-14 21:30N 29°48' W 092°04'2 4.5
2018-Jun-14 21:00N 29°48' W 092°07'2 4.6
2018-Jun-14 20:30N 29°47' W 092°09'2 4.2
2018-Jun-14 20:00N 29°47' W 092°12'1 1.5
2018-Jun-14 19:30N 29°47' W 092°13'2 3.4
2018-Jun-14 19:01N 29°48' W 092°14'2 4.6
2018-Jun-14 18:30N 29°49' W 092°17'2 4.0
2018-Jun-14 18:00N 29°50' W 092°18'2 4.4
2018-Jun-14 17:30N 29°51' W 092°21'1 2.3
2018-Jun-14 17:00N 29°52' W 092°22'35 3.3
2018-Jun-14 06:35N 29°56' W 093°02'1 3.8
2018-Jun-14 06:26N 29°56' W 093°02'1 2.9
2018-Jun-14 06:00N 29°56' W 093°04'2 3.6
2018-Jun-14 05:30N 29°56' W 093°06'2 3.5
2018-Jun-14 05:00N 29°56' W 093°08'2 3.8
2018-Jun-14 04:30N 29°57' W 093°10'1 2.9
2018-Jun-14 04:00N 29°58' W 093°11'2 3.2
2018-Jun-14 03:30N 29°59' W 093°12'2 3.3
2018-Jun-14 03:00N 30°00' W 093°14'2 3.5
2018-Jun-14 02:30N 30°02' W 093°15'2 3.0
2018-Jun-14 02:01N 30°03' W 093°16'2 3.4
2018-Jun-14 01:30N 30°04' W 093°17'1 2.6
2018-Jun-14 01:01N 30°05' W 093°18'1 1.8
2018-Jun-14 00:31N 30°06' W 093°18'0 0.1
2018-Jun-14 00:01N 30°06' W 093°18'0 0.0
2018-Jun-13 23:30N 30°06' W 093°18'0 0.0
2018-Jun-13 23:01N 30°06' W 093°18'0 0.0
2018-Jun-13 22:30N 30°06' W 093°18'0 0.0
2018-Jun-13 22:00N 30°06' W 093°18'0 0.0
2018-Jun-13 21:30N 30°06' W 093°18'0 0.0
2018-Jun-13 21:00N 30°06' W 093°18'0 0.0
2018-Jun-13 20:30N 30°06' W 093°18'0 0.0
2018-Jun-13 20:00N 30°06' W 093°18'0 0.0
2018-Jun-13 19:30N 30°06' W 093°18'0 0.0
2018-Jun-13 19:01N 30°06' W 093°18'0 0.0
2018-Jun-13 18:30N 30°06' W 093°18'0 0.0
2018-Jun-13 18:00N 30°06' W 093°18'0 0.0
2018-Jun-13 17:30N 30°06' W 093°18'0 0.0
2018-Jun-13 17:00N 30°06' W 093°18'0 0.0
2018-Jun-13 16:30N 30°06' W 093°18'0 0.0
2018-Jun-13 16:00N 30°06' W 093°18'0 0.0
2018-Jun-13 15:30N 30°06' W 093°18'0 0.0
2018-Jun-13 14:58N 30°06' W 093°18'0 0.0
2018-Jun-13 14:30N 30°06' W 093°18'0 0.0
2018-Jun-13 14:00N 30°06' W 093°18'0 0.0
2018-Jun-13 13:30N 30°06' W 093°18'0 0.0
2018-Jun-13 13:01N 30°06' W 093°18'0 0.0
2018-Jun-13 12:30N 30°06' W 093°18'0 0.0
2018-Jun-13 11:59N 30°06' W 093°18'0 0.0
2018-Jun-13 11:30N 30°06' W 093°18'0 0.0
2018-Jun-13 11:00N 30°06' W 093°18'0 0.0
2018-Jun-13 10:30N 30°06' W 093°18'0 0.0
2018-Jun-13 10:00N 30°06' W 093°18'0 0.0
2018-Jun-13 09:30N 30°06' W 093°18'0 0.0
2018-Jun-13 09:00N 30°06' W 093°18'0 0.0
2018-Jun-13 08:30N 30°06' W 093°18'0 0.0
2018-Jun-13 08:00N 30°06' W 093°18'0 0.0
2018-Jun-13 07:31N 30°06' W 093°18'0 0.0
2018-Jun-13 07:00N 30°06' W 093°18'0 0.0
2018-Jun-13 06:30N 30°06' W 093°18'0 0.0
2018-Jun-13 06:01N 30°06' W 093°18'0 0.0
2018-Jun-13 05:30N 30°06' W 093°18'0 0.0
2018-Jun-13 05:00N 30°06' W 093°18'0 0.0
2018-Jun-13 04:30N 30°06' W 093°18'0 0.0
2018-Jun-13 04:00N 30°06' W 093°18'0 0.0
2018-Jun-13 03:31N 30°06' W 093°18'0 0.0
2018-Jun-13 03:00N 30°06' W 093°18'0 0.0
2018-Jun-13 02:30N 30°06' W 093°18'0 0.0
2018-Jun-13 02:00N 30°06' W 093°18'0 0.0
2018-Jun-13 01:30N 30°06' W 093°18'0 0.0
2018-Jun-13 01:00N 30°06' W 093°18'0 0.0
2018-Jun-13 00:30N 30°06' W 093°18'0 0.7
2018-Jun-13 00:00N 30°06' W 093°19'1 1.8
2018-Jun-12 23:30N 30°05' W 093°19'2 3.4
2018-Jun-12 23:00N 30°04' W 093°21'1 2.8
2018-Jun-12 22:30N 30°04' W 093°22'1 2.2
2018-Jun-12 22:00N 30°04' W 093°23'0 0.0
2018-Jun-12 21:30N 30°04' W 093°23'0 0.1
2018-Jun-12 21:00N 30°04' W 093°23'1 2.3
2018-Jun-12 20:29N 30°04' W 093°25'2 4.8
2018-Jun-12 20:00N 30°04' W 093°28'2 4.6
2018-Jun-12 19:30N 30°04' W 093°30'2 4.8
2018-Jun-12 19:00N 30°04' W 093°33'4 4.7
2018-Jun-12 18:09N 30°03' W 093°38'0 2.7
2018-Jun-12 18:01N 30°04' W 093°38'3 4.9
2018-Jun-12 17:28N 30°03' W 093°41'2 4.6
2018-Jun-12 17:00N 30°03' W 093°43'1 2.8
2018-Jun-12 16:31N 30°02' W 093°44'3 5.6
2018-Jun-12 16:01N 29°60' W 093°47'3 5.4
2018-Jun-12 15:30N 29°59' W 093°49'2 5.0
2018-Jun-12 15:00N 29°57' W 093°52'3 6.4
2018-Jun-12 14:30N 29°54' W 093°54'3 6.7
2018-Jun-12 14:00N 29°52' W 093°56'3 5.8
2018-Jun-12 13:31N 29°49' W 093°58'2 4.7
2018-Jun-12 13:00N 29°48' W 094°00'2 4.8
2018-Jun-12 12:30N 29°47' W 094°02'2 4.6
2018-Jun-12 12:01N 29°45' W 094°04'2 4.5
2018-Jun-12 11:30N 29°44' W 094°06'2 4.4
2018-Jun-12 11:00N 29°42' W 094°08'2 4.2
2018-Jun-12 10:31N 29°41' W 094°10'1 2.7
2018-Jun-12 10:01N 29°41' W 094°12'2 4.2
2018-Jun-12 09:30N 29°40' W 094°14'2 4.4
2018-Jun-12 09:00N 29°39' W 094°16'2 3.6
2018-Jun-12 08:29N 29°38' W 094°18'2 4.2
2018-Jun-12 07:57N 29°37' W 094°20'2 4.4
2018-Jun-12 07:30N 29°36' W 094°22'2 3.8
2018-Jun-12 07:00N 29°36' W 094°24'2 2.8
2018-Jun-12 06:12N 29°34' W 094°26'17 4.1
2018-Jun-12 02:00N 29°26' W 094°43'2 4.2
2018-Jun-12 01:28N 29°24' W 094°45'2 3.5
2018-Jun-12 00:55N 29°23' W 094°47'2 4.7
2018-Jun-12 00:30N 29°21' W 094°48'2 3.8
2018-Jun-12 00:00N 29°20' W 094°50'2 4.8
2018-Jun-11 23:30N 29°19' W 094°52'3 5.5
2018-Jun-11 23:00N 29°17' W 094°55'3 5.7
2018-Jun-11 22:30N 29°17' W 094°58'3 5.1
2018-Jun-11 22:00N 29°15' W 095°00'2 4.7
2018-Jun-11 21:30N 29°13' W 095°02'2 3.8
2018-Jun-11 21:00N 29°12' W 095°03'2 4.5
2018-Jun-11 20:31N 29°11' W 095°05'2 4.9
2018-Jun-11 20:01N 29°10' W 095°08'3 5.2
2018-Jun-11 19:30N 29°08' W 095°10'3 5.1
2018-Jun-11 19:01N 29°06' W 095°12'2 4.9
2018-Jun-11 18:30N 29°04' W 095°13'2 4.8
2018-Jun-11 18:00N 29°01' W 095°14'3 5.2
2018-Jun-11 17:30N 28°59' W 095°16'2 4.9
2018-Jun-11 17:00N 28°58' W 095°17'  
2018-Jun-06 05:44N 27°49' W 097°28'0 0.0
2018-Jun-06 05:29N 27°49' W 097°28'  
Track history (hours):
 
Tides and Currents Weather Stations Pressure Air Temp Water Temp Dewpoint Dewpoint Depression Visibility Wind Speed Wind Dir Waves Ship Positions

Capt. Reggie Leboeuf

Owner: Kirby Inland Marine LP, Houston, TX. More information available from US FCC via Universal Licensing System and Coast Guard Vessel Documentation Center.

Last reported at 2018-Jun-14 23:12 UTC. Time now 2018-Jun-21 21:59 UTC.
Position N 29°51' W 091°56'.

Length 26 m; draft 3.5 m.

Type: . MMSI: 366995280.

Date/timePositionNaut miles runAvg speedWind from/ knotsBaromVisibWave heightAir tempDewpointWater temp
2018-Jun-14 23:12N 29°51' W 091°56'1 4.6
2018-Jun-14 23:00N 29°51' W 091°57'2 4.6
2018-Jun-14 22:30N 29°50' W 091°59'2 4.9
2018-Jun-14 22:00N 29°49' W 092°02'2 4.5
2018-Jun-14 21:30N 29°48' W 092°04'2 4.5
2018-Jun-14 21:00N 29°48' W 092°07'2 4.6
2018-Jun-14 20:30N 29°47' W 092°09'2 4.2
2018-Jun-14 20:00N 29°47' W 092°12'1 1.5
2018-Jun-14 19:30N 29°47' W 092°13'2 3.4
2018-Jun-14 19:01N 29°48' W 092°14'2 4.6
2018-Jun-14 18:30N 29°49' W 092°17'2 4.0
2018-Jun-14 18:00N 29°50' W 092°18'2 4.4
2018-Jun-14 17:30N 29°51' W 092°21'1 2.3
2018-Jun-14 17:00N 29°52' W 092°22'35 3.3
2018-Jun-14 06:35N 29°56' W 093°02'1 3.8
2018-Jun-14 06:26N 29°56' W 093°02'1 2.9
2018-Jun-14 06:00N 29°56' W 093°04'2 3.6
2018-Jun-14 05:30N 29°56' W 093°06'2 3.5
2018-Jun-14 05:00N 29°56' W 093°08'2 3.8
2018-Jun-14 04:30N 29°57' W 093°10'1 2.9
2018-Jun-14 04:00N 29°58' W 093°11'2 3.2
2018-Jun-14 03:30N 29°59' W 093°12'2 3.3
2018-Jun-14 03:00N 30°00' W 093°14'2 3.5
2018-Jun-14 02:30N 30°02' W 093°15'2 3.0
2018-Jun-14 02:01N 30°03' W 093°16'2 3.4
2018-Jun-14 01:30N 30°04' W 093°17'1 2.6
2018-Jun-14 01:01N 30°05' W 093°18'1 1.8
2018-Jun-14 00:31N 30°06' W 093°18'0 0.1
2018-Jun-14 00:01N 30°06' W 093°18'0 0.0
2018-Jun-13 23:30N 30°06' W 093°18'0 0.0
2018-Jun-13 23:01N 30°06' W 093°18'0 0.0
2018-Jun-13 22:30N 30°06' W 093°18'0 0.0
2018-Jun-13 22:00N 30°06' W 093°18'0 0.0
2018-Jun-13 21:30N 30°06' W 093°18'0 0.0
2018-Jun-13 21:00N 30°06' W 093°18'0 0.0
2018-Jun-13 20:30N 30°06' W 093°18'0 0.0
2018-Jun-13 20:00N 30°06' W 093°18'0 0.0
2018-Jun-13 19:30N 30°06' W 093°18'0 0.0
2018-Jun-13 19:01N 30°06' W 093°18'0 0.0
2018-Jun-13 18:30N 30°06' W 093°18'0 0.0
2018-Jun-13 18:00N 30°06' W 093°18'0 0.0
2018-Jun-13 17:30N 30°06' W 093°18'0 0.0
2018-Jun-13 17:00N 30°06' W 093°18'0 0.0
2018-Jun-13 16:30N 30°06' W 093°18'0 0.0
2018-Jun-13 16:00N 30°06' W 093°18'0 0.0
2018-Jun-13 15:30N 30°06' W 093°18'0 0.0
2018-Jun-13 14:58N 30°06' W 093°18'0 0.0
2018-Jun-13 14:30N 30°06' W 093°18'0 0.0
2018-Jun-13 14:00N 30°06' W 093°18'0 0.0
2018-Jun-13 13:30N 30°06' W 093°18'0 0.0
2018-Jun-13 13:01N 30°06' W 093°18'0 0.0
2018-Jun-13 12:30N 30°06' W 093°18'0 0.0
2018-Jun-13 11:59N 30°06' W 093°18'0 0.0
2018-Jun-13 11:30N 30°06' W 093°18'0 0.0
2018-Jun-13 11:00N 30°06' W 093°18'0 0.0
2018-Jun-13 10:30N 30°06' W 093°18'0 0.0
2018-Jun-13 10:00N 30°06' W 093°18'0 0.0
2018-Jun-13 09:30N 30°06' W 093°18'0 0.0
2018-Jun-13 09:00N 30°06' W 093°18'0 0.0
2018-Jun-13 08:30N 30°06' W 093°18'0 0.0
2018-Jun-13 08:00N 30°06' W 093°18'0 0.0
2018-Jun-13 07:31N 30°06' W 093°18'0 0.0
2018-Jun-13 07:00N 30°06' W 093°18'0 0.0
2018-Jun-13 06:30N 30°06' W 093°18'0 0.0
2018-Jun-13 06:01N 30°06' W 093°18'0 0.0
2018-Jun-13 05:30N 30°06' W 093°18'0 0.0
2018-Jun-13 05:00N 30°06' W 093°18'0 0.0
2018-Jun-13 04:30N 30°06' W 093°18'0 0.0
2018-Jun-13 04:00N 30°06' W 093°18'0 0.0
2018-Jun-13 03:31N 30°06' W 093°18'0 0.0
2018-Jun-13 03:00N 30°06' W 093°18'0 0.0
2018-Jun-13 02:30N 30°06' W 093°18'0 0.0
2018-Jun-13 02:00N 30°06' W 093°18'0 0.0
2018-Jun-13 01:30N 30°06' W 093°18'0 0.0
2018-Jun-13 01:00N 30°06' W 093°18'0 0.0
2018-Jun-13 00:30N 30°06' W 093°18'0 0.7
2018-Jun-13 00:00N 30°06' W 093°19'1 1.8
2018-Jun-12 23:30N 30°05' W 093°19'2 3.4
2018-Jun-12 23:00N 30°04' W 093°21'1 2.8
2018-Jun-12 22:30N 30°04' W 093°22'1 2.2
2018-Jun-12 22:00N 30°04' W 093°23'0 0.0
2018-Jun-12 21:30N 30°04' W 093°23'0 0.1
2018-Jun-12 21:00N 30°04' W 093°23'1 2.3
2018-Jun-12 20:29N 30°04' W 093°25'2 4.8
2018-Jun-12 20:00N 30°04' W 093°28'2 4.6
2018-Jun-12 19:30N 30°04' W 093°30'2 4.8
2018-Jun-12 19:00N 30°04' W 093°33'4 4.7
2018-Jun-12 18:09N 30°03' W 093°38'0 2.7
2018-Jun-12 18:01N 30°04' W 093°38'3 4.9
2018-Jun-12 17:28N 30°03' W 093°41'2 4.6
2018-Jun-12 17:00N 30°03' W 093°43'1 2.8
2018-Jun-12 16:31N 30°02' W 093°44'3 5.6
2018-Jun-12 16:01N 29°60' W 093°47'3 5.4
2018-Jun-12 15:30N 29°59' W 093°49'2 5.0
2018-Jun-12 15:00N 29°57' W 093°52'3 6.4
2018-Jun-12 14:30N 29°54' W 093°54'3 6.7
2018-Jun-12 14:00N 29°52' W 093°56'3 5.8
2018-Jun-12 13:31N 29°49' W 093°58'2 4.7
2018-Jun-12 13:00N 29°48' W 094°00'2 4.8
2018-Jun-12 12:30N 29°47' W 094°02'2 4.6
2018-Jun-12 12:01N 29°45' W 094°04'2 4.5
2018-Jun-12 11:30N 29°44' W 094°06'2 4.4
2018-Jun-12 11:00N 29°42' W 094°08'2 4.2
2018-Jun-12 10:31N 29°41' W 094°10'1 2.7
2018-Jun-12 10:01N 29°41' W 094°12'2 4.2
2018-Jun-12 09:30N 29°40' W 094°14'2 4.4
2018-Jun-12 09:00N 29°39' W 094°16'2 3.6
2018-Jun-12 08:29N 29°38' W 094°18'2 4.2
2018-Jun-12 07:57N 29°37' W 094°20'2 4.4
2018-Jun-12 07:30N 29°36' W 094°22'2 3.8
2018-Jun-12 07:00N 29°36' W 094°24'2 2.8
2018-Jun-12 06:12N 29°34' W 094°26'17 4.1
2018-Jun-12 02:00N 29°26' W 094°43'2 4.2
2018-Jun-12 01:28N 29°24' W 094°45'2 3.5
2018-Jun-12 00:55N 29°23' W 094°47'2 4.7
2018-Jun-12 00:30N 29°21' W 094°48'2 3.8
2018-Jun-12 00:00N 29°20' W 094°50'2 4.8
2018-Jun-11 23:30N 29°19' W 094°52'3 5.5
2018-Jun-11 23:00N 29°17' W 094°55'3 5.7
2018-Jun-11 22:30N 29°17' W 094°58'3 5.1
2018-Jun-11 22:00N 29°15' W 095°00'2 4.7
2018-Jun-11 21:30N 29°13' W 095°02'2 3.8
2018-Jun-11 21:00N 29°12' W 095°03'2 4.5
2018-Jun-11 20:31N 29°11' W 095°05'2 4.9
2018-Jun-11 20:01N 29°10' W 095°08'3 5.2
2018-Jun-11 19:30N 29°08' W 095°10'3 5.1
2018-Jun-11 19:01N 29°06' W 095°12'2 4.9
2018-Jun-11 18:30N 29°04' W 095°13'2 4.8
2018-Jun-11 18:00N 29°01' W 095°14'3 5.2
2018-Jun-11 17:30N 28°59' W 095°16'2 4.9
2018-Jun-11 17:00N 28°58' W 095°17'  
2018-Jun-06 05:44N 27°49' W 097°28'0 0.0
2018-Jun-06 05:29N 27°49' W 097°28'  

Dump ship's entire track history